Terminal Aerodrome Forecast
Issued by NWS

Home | Current Version | Previous Version | Graphics & Text | Print | Product List | Glossary On
Versions: 1 2 3 4 5 6 7 8 9 10 11 12 13 14 15 16 17 18 19 20 21 22 23 24 25 26 27 28 29 30 31 32
000
FTUS43 KBIS 220538
TAFDIK
TAF
KDIK 220538Z 2206/2306 VRB03KT P6SM OVC200
     FM220800 32005KT 1 1/2SM BR OVC030
     FM221000 34007KT 3/4SM BR VCSH BKN003 OVC015
     FM221500 36012KT 1 1/2SM -SN BR OVC003
     FM222000 02013KT P6SM VCSH OVC008
     FM222200 02011KT P6SM OVC008=

USA.gov is the U.S. government's official web portal to all federal, state and local government web resources and services.